sensor_id;sensor_type;location;lat;lon;timestamp;P1;durP1;ratioP1;P2;durP2;ratioP2
5898;SDS011;2975;50.956;6.962;2022-09-28T00:01:26;1.20;;;0.93;;
5898;SDS011;2975;50.956;6.962;2022-09-28T00:03:52;2.20;;;0.90;;
5898;SDS011;2975;50.956;6.962;2022-09-28T00:06:22;0.83;;;0.80;;
5898;SDS011;2975;50.956;6.962;2022-09-28T00:08:49;1.47;;;0.90;;
5898;SDS011;2975;50.956;6.962;2022-09-28T00:11:16;1.50;;;1.00;;
5898;SDS011;2975;50.956;6.962;2022-09-28T00:13:43;0.67;;;0.67;;
5898;SDS011;2975;50.956;6.962;2022-09-28T00:16:13;1.17;;;1.00;;
5898;SDS011;2975;50.956;6.962;2022-09-28T00:18:41;1.40;;;0.70;;
5898;SDS011;2975;50.956;6.962;2022-09-28T00:21:08;0.60;;;0.60;;
5898;SDS011;2975;50.956;6.962;2022-09-28T00:23:39;1.33;;;0.97;;
5898;SDS011;2975;50.956;6.962;2022-09-28T00:26:25;0.60;;;0.60;;
5898;SDS011;2975;50.956;6.962;2022-09-28T00:28:56;1.07;;;0.80;;
5898;SDS011;2975;50.956;6.962;2022-09-28T00:31:23;1.93;;;1.00;;
5898;SDS011;2975;50.956;6.962;2022-09-28T00:33:50;0.90;;;0.70;;
5898;SDS011;2975;50.956;6.962;2022-09-28T00:36:16;1.17;;;1.07;;
5898;SDS011;2975;50.956;6.962;2022-09-28T00:38:42;0.80;;;0.80;;
5898;SDS011;2975;50.956;6.962;2022-09-28T00:41:11;3.43;;;0.70;;
5898;SDS011;2975;50.956;6.962;2022-09-28T00:43:36;4.53;;;1.23;;
5898;SDS011;2975;50.956;6.962;2022-09-28T00:46:09;2.83;;;0.97;;
5898;SDS011;2975;50.956;6.962;2022-09-28T00:49:01;2.43;;;1.23;;
5898;SDS011;2975;50.956;6.962;2022-09-28T00:51:29;1.93;;;0.87;;
5898;SDS011;2975;50.956;6.962;2022-09-28T00:53:56;2.10;;;0.70;;
5898;SDS011;2975;50.956;6.962;2022-09-28T00:56:24;0.80;;;0.80;;
5898;SDS011;2975;50.956;6.962;2022-09-28T00:58:54;1.43;;;0.90;;
5898;SDS011;2975;50.956;6.962;2022-09-28T01:01:20;0.83;;;0.70;;
5898;SDS011;2975;50.956;6.962;2022-09-28T01:03:46;3.53;;;1.30;;
5898;SDS011;2975;50.956;6.962;2022-09-28T01:06:17;2.53;;;0.80;;
5898;SDS011;2975;50.956;6.962;2022-09-28T01:08:44;0.83;;;0.70;;
5898;SDS011;2975;50.956;6.962;2022-09-28T01:11:14;0.80;;;0.80;;
5898;SDS011;2975;50.956;6.962;2022-09-28T01:13:40;1.17;;;0.80;;
5898;SDS011;2975;50.956;6.962;2022-09-28T01:16:18;2.43;;;1.17;;
5898;SDS011;2975;50.956;6.962;2022-09-28T01:29:41;2.63;;;1.00;;
5898;SDS011;2975;50.956;6.962;2022-09-28T01:35:26;1.40;;;1.00;;
5898;SDS011;2975;50.956;6.962;2022-09-28T01:38:00;3.07;;;1.00;;
5898;SDS011;2975;50.956;6.962;2022-09-28T01:40:30;1.43;;;0.93;;
5898;SDS011;2975;50.956;6.962;2022-09-28T01:43:08;1.30;;;1.20;;
5898;SDS011;2975;50.956;6.962;2022-09-28T01:45:44;2.37;;;1.10;;
5898;SDS011;2975;50.956;6.962;2022-09-28T01:48:15;3.93;;;1.30;;
5898;SDS011;2975;50.956;6.962;2022-09-28T01:50:45;1.70;;;1.10;;
5898;SDS011;2975;50.956;6.962;2022-09-28T01:53:18;4.07;;;1.30;;
5898;SDS011;2975;50.956;6.962;2022-09-28T01:55:47;1.23;;;0.80;;
5898;SDS011;2975;50.956;6.962;2022-09-28T01:58:29;3.03;;;1.00;;
5898;SDS011;2975;50.956;6.962;2022-09-28T02:00:58;1.60;;;0.90;;
5898;SDS011;2975;50.956;6.962;2022-09-28T02:03:31;2.90;;;1.00;;
5898;SDS011;2975;50.956;6.962;2022-09-28T02:06:04;2.13;;;1.23;;
5898;SDS011;2975;50.956;6.962;2022-09-28T02:08:35;2.20;;;1.30;;
5898;SDS011;2975;50.956;6.962;2022-09-28T02:11:10;2.60;;;1.20;;
5898;SDS011;2975;50.956;6.962;2022-09-28T02:13:39;2.27;;;1.20;;
5898;SDS011;2975;50.956;6.962;2022-09-28T02:16:13;4.27;;;1.20;;
5898;SDS011;2975;50.956;6.962;2022-09-28T02:18:41;3.53;;;1.20;;
5898;SDS011;2975;50.956;6.962;2022-09-28T02:21:10;1.27;;;1.10;;
5898;SDS011;2975;50.956;6.962;2022-09-28T02:23:57;1.67;;;1.20;;
5898;SDS011;2975;50.956;6.962;2022-09-28T02:26:29;1.67;;;1.40;;
5898;SDS011;2975;50.956;6.962;2022-09-28T02:28:58;1.73;;;1.17;;
5898;SDS011;2975;50.956;6.962;2022-09-28T02:31:24;2.53;;;1.40;;
5898;SDS011;2975;50.956;6.962;2022-09-28T02:33:51;1.50;;;1.40;;
5898;SDS011;2975;50.956;6.962;2022-09-28T02:36:18;1.70;;;1.60;;
5898;SDS011;2975;50.956;6.962;2022-09-28T02:38:44;4.03;;;1.90;;
5898;SDS011;2975;50.956;6.962;2022-09-28T02:46:57;4.67;;;2.10;;
5898;SDS011;2975;50.956;6.962;2022-09-28T02:55:12;3.17;;;2.40;;
5898;SDS011;2975;50.956;6.962;2022-09-28T03:00:37;4.10;;;2.57;;
5898;SDS011;2975;50.956;6.962;2022-09-28T03:03:20;4.33;;;2.73;;
5898;SDS011;2975;50.956;6.962;2022-09-28T03:06:22;5.23;;;3.00;;
5898;SDS011;2975;50.956;6.962;2022-09-28T03:09:00;4.47;;;3.07;;
5898;SDS011;2975;50.956;6.962;2022-09-28T03:11:33;4.80;;;2.30;;
5898;SDS011;2975;50.956;6.962;2022-09-28T03:14:03;6.73;;;2.90;;
5898;SDS011;2975;50.956;6.962;2022-09-28T03:16:29;4.70;;;3.23;;
5898;SDS011;2975;50.956;6.962;2022-09-28T03:18:56;6.20;;;3.50;;
5898;SDS011;2975;50.956;6.962;2022-09-28T03:21:22;4.77;;;3.23;;
5898;SDS011;2975;50.956;6.962;2022-09-28T03:23:47;4.00;;;3.30;;
5898;SDS011;2975;50.956;6.962;2022-09-28T03:26:13;7.37;;;3.83;;
5898;SDS011;2975;50.956;6.962;2022-09-28T03:28:40;5.57;;;4.47;;
5898;SDS011;2975;50.956;6.962;2022-09-28T03:31:05;7.63;;;4.60;;
5898;SDS011;2975;50.956;6.962;2022-09-28T03:33:31;5.93;;;4.10;;
5898;SDS011;2975;50.956;6.962;2022-09-28T03:35:56;5.10;;;4.10;;
5898;SDS011;2975;50.956;6.962;2022-09-28T03:38:22;5.20;;;4.40;;
5898;SDS011;2975;50.956;6.962;2022-09-28T03:40:52;8.23;;;5.10;;
5898;SDS011;2975;50.956;6.962;2022-09-28T03:43:22;6.63;;;4.33;;
5898;SDS011;2975;50.956;6.962;2022-09-28T03:48:19;10.17;;;6.27;;
5898;SDS011;2975;50.956;6.962;2022-09-28T03:50:47;8.67;;;5.93;;
5898;SDS011;2975;50.956;6.962;2022-09-28T03:53:12;9.30;;;6.17;;
5898;SDS011;2975;50.956;6.962;2022-09-28T03:55:38;7.73;;;6.03;;
5898;SDS011;2975;50.956;6.962;2022-09-28T03:58:03;10.17;;;6.83;;
5898;SDS011;2975;50.956;6.962;2022-09-28T04:00:29;7.67;;;6.63;;
5898;SDS011;2975;50.956;6.962;2022-09-28T04:02:55;9.30;;;6.50;;
5898;SDS011;2975;50.956;6.962;2022-09-28T04:05:20;10.53;;;6.67;;
5898;SDS011;2975;50.956;6.962;2022-09-28T04:07:46;10.27;;;6.40;;
5898;SDS011;2975;50.956;6.962;2022-09-28T04:10:11;12.17;;;6.67;;
5898;SDS011;2975;50.956;6.962;2022-09-28T04:12:37;8.37;;;6.83;;
5898;SDS011;2975;50.956;6.962;2022-09-28T04:15:02;11.00;;;6.57;;
5898;SDS011;2975;50.956;6.962;2022-09-28T04:17:29;14.63;;;6.87;;
5898;SDS011;2975;50.956;6.962;2022-09-28T04:19:56;7.77;;;6.60;;
5898;SDS011;2975;50.956;6.962;2022-09-28T04:22:21;9.17;;;6.87;;
5898;SDS011;2975;50.956;6.962;2022-09-28T04:24:47;8.33;;;6.80;;
5898;SDS011;2975;50.956;6.962;2022-09-28T04:27:12;8.37;;;6.90;;
5898;SDS011;2975;50.956;6.962;2022-09-28T04:29:57;9.10;;;7.07;;
5898;SDS011;2975;50.956;6.962;2022-09-28T04:32:22;10.90;;;7.43;;
5898;SDS011;2975;50.956;6.962;2022-09-28T04:34:48;9.40;;;7.53;;
5898;SDS011;2975;50.956;6.962;2022-09-28T04:37:15;12.73;;;7.13;;
5898;SDS011;2975;50.956;6.962;2022-09-28T04:39:41;11.43;;;7.83;;
5898;SDS011;2975;50.956;6.962;2022-09-28T04:42:08;12.37;;;7.53;;
5898;SDS011;2975;50.956;6.962;2022-09-28T04:44:34;11.43;;;8.77;;
5898;SDS011;2975;50.956;6.962;2022-09-28T04:47:00;12.93;;;8.07;;
5898;SDS011;2975;50.956;6.962;2022-09-28T04:49:25;13.17;;;7.53;;
5898;SDS011;2975;50.956;6.962;2022-09-28T04:51:51;10.33;;;8.50;;
5898;SDS011;2975;50.956;6.962;2022-09-28T04:54:17;11.97;;;8.13;;
5898;SDS011;2975;50.956;6.962;2022-09-28T04:56:42;15.80;;;9.00;;
5898;SDS011;2975;50.956;6.962;2022-09-28T04:59:09;10.30;;;7.47;;
5898;SDS011;2975;50.956;6.962;2022-09-28T05:01:34;13.23;;;8.47;;
5898;SDS011;2975;50.956;6.962;2022-09-28T05:04:00;9.77;;;7.07;;
5898;SDS011;2975;50.956;6.962;2022-09-28T05:06:26;11.10;;;7.97;;
5898;SDS011;2975;50.956;6.962;2022-09-28T05:08:54;10.70;;;7.87;;
5898;SDS011;2975;50.956;6.962;2022-09-28T05:11:21;9.83;;;7.87;;
5898;SDS011;2975;50.956;6.962;2022-09-28T05:13:47;12.50;;;7.83;;
5898;SDS011;2975;50.956;6.962;2022-09-28T05:16:14;10.63;;;6.67;;
5898;SDS011;2975;50.956;6.962;2022-09-28T05:18:40;9.37;;;6.80;;
5898;SDS011;2975;50.956;6.962;2022-09-28T05:21:13;7.57;;;6.60;;
5898;SDS011;2975;50.956;6.962;2022-09-28T05:23:39;7.80;;;6.30;;
5898;SDS011;2975;50.956;6.962;2022-09-28T05:26:09;8.93;;;6.80;;
5898;SDS011;2975;50.956;6.962;2022-09-28T05:28:35;12.97;;;6.90;;
5898;SDS011;2975;50.956;6.962;2022-09-28T05:31:02;8.83;;;6.07;;
5898;SDS011;2975;50.956;6.962;2022-09-28T05:33:29;9.17;;;6.07;;
5898;SDS011;2975;50.956;6.962;2022-09-28T05:35:56;7.37;;;6.40;;
5898;SDS011;2975;50.956;6.962;2022-09-28T05:38:22;9.20;;;6.50;;
5898;SDS011;2975;50.956;6.962;2022-09-28T05:40:48;8.77;;;6.03;;
5898;SDS011;2975;50.956;6.962;2022-09-28T05:43:14;9.53;;;6.57;;
5898;SDS011;2975;50.956;6.962;2022-09-28T05:45:40;12.30;;;6.00;;
5898;SDS011;2975;50.956;6.962;2022-09-28T05:48:05;10.50;;;6.17;;
5898;SDS011;2975;50.956;6.962;2022-09-28T05:50:31;8.70;;;6.03;;
5898;SDS011;2975;50.956;6.962;2022-09-28T05:53:00;9.70;;;6.90;;
5898;SDS011;2975;50.956;6.962;2022-09-28T05:55:34;8.20;;;5.97;;
5898;SDS011;2975;50.956;6.962;2022-09-28T05:58:01;8.20;;;5.67;;
5898;SDS011;2975;50.956;6.962;2022-09-28T06:00:29;6.53;;;5.13;;
5898;SDS011;2975;50.956;6.962;2022-09-28T06:02:59;8.27;;;5.17;;
5898;SDS011;2975;50.956;6.962;2022-09-28T06:05:26;7.07;;;5.27;;
5898;SDS011;2975;50.956;6.962;2022-09-28T06:07:57;8.13;;;5.50;;
5898;SDS011;2975;50.956;6.962;2022-09-28T06:10:23;8.47;;;4.67;;
5898;SDS011;2975;50.956;6.962;2022-09-28T06:12:51;6.13;;;4.97;;
5898;SDS011;2975;50.956;6.962;2022-09-28T06:15:17;6.43;;;4.90;;
5898;SDS011;2975;50.956;6.962;2022-09-28T06:17:43;7.90;;;5.00;;
5898;SDS011;2975;50.956;6.962;2022-09-28T06:20:09;7.67;;;5.00;;
5898;SDS011;2975;50.956;6.962;2022-09-28T06:22:35;8.00;;;4.83;;
5898;SDS011;2975;50.956;6.962;2022-09-28T06:25:01;7.33;;;5.17;;
5898;SDS011;2975;50.956;6.962;2022-09-28T06:27:27;6.17;;;4.10;;
5898;SDS011;2975;50.956;6.962;2022-09-28T06:29:53;5.10;;;4.60;;
5898;SDS011;2975;50.956;6.962;2022-09-28T06:32:18;7.23;;;4.87;;
5898;SDS011;2975;50.956;6.962;2022-09-28T06:34:44;5.80;;;4.77;;
5898;SDS011;2975;50.956;6.962;2022-09-28T06:37:09;7.77;;;5.20;;
5898;SDS011;2975;50.956;6.962;2022-09-28T06:39:35;6.20;;;4.60;;
5898;SDS011;2975;50.956;6.962;2022-09-28T06:42:00;7.17;;;4.83;;
5898;SDS011;2975;50.956;6.962;2022-09-28T06:44:27;8.60;;;4.70;;
5898;SDS011;2975;50.956;6.962;2022-09-28T06:46:53;5.87;;;4.80;;
5898;SDS011;2975;50.956;6.962;2022-09-28T06:49:20;7.13;;;5.00;;
5898;SDS011;2975;50.956;6.962;2022-09-28T06:51:46;9.80;;;5.20;;
5898;SDS011;2975;50.956;6.962;2022-09-28T06:54:12;7.17;;;4.60;;
5898;SDS011;2975;50.956;6.962;2022-09-28T06:56:37;5.90;;;4.80;;
5898;SDS011;2975;50.956;6.962;2022-09-28T06:59:03;4.70;;;4.17;;
5898;SDS011;2975;50.956;6.962;2022-09-28T07:01:28;7.37;;;4.33;;
5898;SDS011;2975;50.956;6.962;2022-09-28T07:03:54;8.33;;;4.60;;
5898;SDS011;2975;50.956;6.962;2022-09-28T07:06:21;5.40;;;4.20;;
5898;SDS011;2975;50.956;6.962;2022-09-28T07:08:50;3.93;;;3.53;;
5898;SDS011;2975;50.956;6.962;2022-09-28T07:11:15;5.10;;;4.10;;
5898;SDS011;2975;50.956;6.962;2022-09-28T07:13:44;5.77;;;3.70;;
5898;SDS011;2975;50.956;6.962;2022-09-28T07:16:09;5.33;;;3.30;;
5898;SDS011;2975;50.956;6.962;2022-09-28T07:18:36;4.77;;;3.70;;
5898;SDS011;2975;50.956;6.962;2022-09-28T07:21:01;5.03;;;3.67;;
5898;SDS011;2975;50.956;6.962;2022-09-28T07:23:28;4.27;;;3.10;;
5898;SDS011;2975;50.956;6.962;2022-09-28T07:25:54;4.10;;;3.50;;
5898;SDS011;2975;50.956;6.962;2022-09-28T07:28:22;3.63;;;2.87;;
5898;SDS011;2975;50.956;6.962;2022-09-28T07:30:48;6.87;;;3.73;;
5898;SDS011;2975;50.956;6.962;2022-09-28T07:33:14;7.20;;;3.50;;
5898;SDS011;2975;50.956;6.962;2022-09-28T07:35:41;5.47;;;3.63;;
5898;SDS011;2975;50.956;6.962;2022-09-28T07:38:14;3.20;;;2.90;;
5898;SDS011;2975;50.956;6.962;2022-09-28T07:40:40;5.67;;;3.93;;
5898;SDS011;2975;50.956;6.962;2022-09-28T07:43:24;4.63;;;2.47;;
5898;SDS011;2975;50.956;6.962;2022-09-28T07:45:50;3.57;;;2.93;;
5898;SDS011;2975;50.956;6.962;2022-09-28T07:48:18;2.77;;;2.53;;
5898;SDS011;2975;50.956;6.962;2022-09-28T07:50:47;2.70;;;2.33;;
5898;SDS011;2975;50.956;6.962;2022-09-28T07:53:17;2.57;;;2.13;;
5898;SDS011;2975;50.956;6.962;2022-09-28T07:55:48;2.97;;;2.60;;
5898;SDS011;2975;50.956;6.962;2022-09-28T07:58:15;2.80;;;2.00;;
5898;SDS011;2975;50.956;6.962;2022-09-28T08:00:40;4.73;;;2.50;;
5898;SDS011;2975;50.956;6.962;2022-09-28T08:03:06;5.07;;;2.30;;
5898;SDS011;2975;50.956;6.962;2022-09-28T08:05:32;3.37;;;2.47;;
5898;SDS011;2975;50.956;6.962;2022-09-28T08:07:59;2.80;;;2.37;;
5898;SDS011;2975;50.956;6.962;2022-09-28T08:10:26;4.77;;;2.30;;
5898;SDS011;2975;50.956;6.962;2022-09-28T08:12:55;2.73;;;1.90;;
5898;SDS011;2975;50.956;6.962;2022-09-28T08:15:26;3.17;;;2.20;;
5898;SDS011;2975;50.956;6.962;2022-09-28T08:17:52;4.53;;;2.10;;
5898;SDS011;2975;50.956;6.962;2022-09-28T08:20:17;4.53;;;2.27;;
5898;SDS011;2975;50.956;6.962;2022-09-28T08:23:05;3.87;;;2.13;;
5898;SDS011;2975;50.956;6.962;2022-09-28T08:25:32;5.03;;;2.23;;
5898;SDS011;2975;50.956;6.962;2022-09-28T08:27:58;2.93;;;2.10;;
5898;SDS011;2975;50.956;6.962;2022-09-28T08:30:24;3.30;;;2.00;;
5898;SDS011;2975;50.956;6.962;2022-09-28T08:32:51;2.33;;;2.10;;
5898;SDS011;2975;50.956;6.962;2022-09-28T08:35:16;4.33;;;2.20;;
5898;SDS011;2975;50.956;6.962;2022-09-28T08:37:42;4.23;;;2.67;;
5898;SDS011;2975;50.956;6.962;2022-09-28T08:40:17;4.17;;;2.80;;
5898;SDS011;2975;50.956;6.962;2022-09-28T08:42:48;4.00;;;2.50;;
5898;SDS011;2975;50.956;6.962;2022-09-28T08:45:35;4.90;;;2.20;;
5898;SDS011;2975;50.956;6.962;2022-09-28T08:50:59;6.10;;;2.90;;
5898;SDS011;2975;50.956;6.962;2022-09-28T08:59:06;4.77;;;2.53;;
5898;SDS011;2975;50.956;6.962;2022-09-28T09:01:40;5.40;;;2.17;;
5898;SDS011;2975;50.956;6.962;2022-09-28T09:04:10;3.20;;;2.30;;
5898;SDS011;2975;50.956;6.962;2022-09-28T09:09:37;3.57;;;2.50;;
5898;SDS011;2975;50.956;6.962;2022-09-28T09:15:20;7.83;;;2.73;;
5898;SDS011;2975;50.956;6.962;2022-09-28T09:18:01;6.03;;;2.70;;
5898;SDS011;2975;50.956;6.962;2022-09-28T09:23:18;5.00;;;2.67;;
5898;SDS011;2975;50.956;6.962;2022-09-28T09:26:04;2.07;;;1.60;;
5898;SDS011;2975;50.956;6.962;2022-09-28T09:39:40;5.10;;;1.53;;
5898;SDS011;2975;50.956;6.962;2022-09-28T09:44:51;3.80;;;1.30;;
5898;SDS011;2975;50.956;6.962;2022-09-28T09:47:38;3.20;;;1.40;;
5898;SDS011;2975;50.956;6.962;2022-09-28T09:50:11;3.23;;;1.40;;
5898;SDS011;2975;50.956;6.962;2022-09-28T09:53:05;4.10;;;1.50;;
5898;SDS011;2975;50.956;6.962;2022-09-28T09:55:46;1.13;;;1.00;;
5898;SDS011;2975;50.956;6.962;2022-09-28T09:58:16;1.90;;;1.17;;
5898;SDS011;2975;50.956;6.962;2022-09-28T10:00:43;2.13;;;1.40;;
5898;SDS011;2975;50.956;6.962;2022-09-28T10:03:14;2.33;;;1.40;;
5898;SDS011;2975;50.956;6.962;2022-09-28T10:05:46;3.07;;;1.30;;
5898;SDS011;2975;50.956;6.962;2022-09-28T10:08:16;1.13;;;1.00;;
5898;SDS011;2975;50.956;6.962;2022-09-28T10:10:49;1.50;;;1.20;;
5898;SDS011;2975;50.956;6.962;2022-09-28T10:13:36;2.37;;;1.00;;
5898;SDS011;2975;50.956;6.962;2022-09-28T10:16:04;1.47;;;0.97;;
5898;SDS011;2975;50.956;6.962;2022-09-28T10:18:30;2.50;;;1.47;;
5898;SDS011;2975;50.956;6.962;2022-09-28T10:20:56;2.10;;;0.97;;
5898;SDS011;2975;50.956;6.962;2022-09-28T10:26:02;1.03;;;0.70;;
5898;SDS011;2975;50.956;6.962;2022-09-28T10:28:38;3.23;;;0.60;;
5898;SDS011;2975;50.956;6.962;2022-09-28T10:34:01;2.57;;;0.60;;
5898;SDS011;2975;50.956;6.962;2022-09-28T10:36:29;1.23;;;1.00;;
5898;SDS011;2975;50.956;6.962;2022-09-28T10:39:23;3.07;;;0.80;;
5898;SDS011;2975;50.956;6.962;2022-09-28T10:41:50;2.13;;;0.80;;
5898;SDS011;2975;50.956;6.962;2022-09-28T10:44:16;2.63;;;0.73;;
5898;SDS011;2975;50.956;6.962;2022-09-28T10:46:44;3.07;;;0.60;;
5898;SDS011;2975;50.956;6.962;2022-09-28T10:49:20;1.33;;;1.07;;
5898;SDS011;2975;50.956;6.962;2022-09-28T10:51:48;2.10;;;1.10;;
5898;SDS011;2975;50.956;6.962;2022-09-28T10:56:43;2.50;;;0.67;;
5898;SDS011;2975;50.956;6.962;2022-09-28T11:01:57;2.07;;;0.70;;
5898;SDS011;2975;50.956;6.962;2022-09-28T11:04:29;1.77;;;0.90;;
5898;SDS011;2975;50.956;6.962;2022-09-28T11:07:02;2.40;;;0.70;;
5898;SDS011;2975;50.956;6.962;2022-09-28T11:09:29;1.83;;;0.70;;
5898;SDS011;2975;50.956;6.962;2022-09-28T11:12:03;2.63;;;0.70;;
5898;SDS011;2975;50.956;6.962;2022-09-28T11:14:37;1.63;;;1.13;;
5898;SDS011;2975;50.956;6.962;2022-09-28T11:17:15;0.70;;;0.50;;
5898;SDS011;2975;50.956;6.962;2022-09-28T11:19:48;1.50;;;0.73;;
5898;SDS011;2975;50.956;6.962;2022-09-28T11:27:41;1.97;;;0.80;;
5898;SDS011;2975;50.956;6.962;2022-09-28T11:30:22;1.40;;;0.80;;
5898;SDS011;2975;50.956;6.962;2022-09-28T11:33:03;1.13;;;0.57;;
5898;SDS011;2975;50.956;6.962;2022-09-28T11:40:47;2.53;;;0.80;;
5898;SDS011;2975;50.956;6.962;2022-09-28T11:49:10;1.37;;;0.67;;
5898;SDS011;2975;50.956;6.962;2022-09-28T11:51:41;1.23;;;0.70;;
5898;SDS011;2975;50.956;6.962;2022-09-28T11:56:45;1.43;;;0.70;;
5898;SDS011;2975;50.956;6.962;2022-09-28T12:01:52;0.83;;;0.60;;
5898;SDS011;2975;50.956;6.962;2022-09-28T12:04:25;2.10;;;0.90;;
5898;SDS011;2975;50.956;6.962;2022-09-28T12:07:05;0.93;;;0.80;;
5898;SDS011;2975;50.956;6.962;2022-09-28T12:12:28;2.57;;;0.80;;
5898;SDS011;2975;50.956;6.962;2022-09-28T12:15:00;2.63;;;1.10;;
5898;SDS011;2975;50.956;6.962;2022-09-28T12:17:37;1.80;;;0.67;;
5898;SDS011;2975;50.956;6.962;2022-09-28T12:23:27;2.97;;;1.10;;
5898;SDS011;2975;50.956;6.962;2022-09-28T12:25:33;2.00;;;1.10;;
5898;SDS011;2975;50.956;6.962;2022-09-28T12:28:05;2.20;;;0.80;;
5898;SDS011;2975;50.956;6.962;2022-09-28T12:30:56;1.90;;;0.80;;
5898;SDS011;2975;50.956;6.962;2022-09-28T12:33:25;1.10;;;0.63;;
5898;SDS011;2975;50.956;6.962;2022-09-28T12:35:58;1.60;;;0.93;;
5898;SDS011;2975;50.956;6.962;2022-09-28T12:52:22;2.77;;;0.93;;
5898;SDS011;2975;50.956;6.962;2022-09-28T12:57:39;4.83;;;1.27;;
5898;SDS011;2975;50.956;6.962;2022-09-28T13:00:34;3.77;;;1.33;;
5898;SDS011;2975;50.956;6.962;2022-09-28T13:09:04;5.00;;;0.90;;
5898;SDS011;2975;50.956;6.962;2022-09-28T13:14:56;2.27;;;0.67;;
5898;SDS011;2975;50.956;6.962;2022-09-28T13:17:38;1.80;;;0.90;;
5898;SDS011;2975;50.956;6.962;2022-09-28T13:23:05;2.50;;;0.70;;
5898;SDS011;2975;50.956;6.962;2022-09-28T13:25:38;1.07;;;0.87;;
5898;SDS011;2975;50.956;6.962;2022-09-28T13:28:08;2.53;;;0.70;;
5898;SDS011;2975;50.956;6.962;2022-09-28T13:30:38;2.23;;;1.00;;
5898;SDS011;2975;50.956;6.962;2022-09-28T13:33:05;1.30;;;0.80;;
5898;SDS011;2975;50.956;6.962;2022-09-28T13:35:40;3.10;;;0.70;;
5898;SDS011;2975;50.956;6.962;2022-09-28T13:55:02;3.93;;;1.23;;
5898;SDS011;2975;50.956;6.962;2022-09-28T14:00:06;1.87;;;1.07;;
5898;SDS011;2975;50.956;6.962;2022-09-28T14:02:46;5.07;;;1.30;;
5898;SDS011;2975;50.956;6.962;2022-09-28T14:10:44;3.43;;;1.70;;
5898;SDS011;2975;50.956;6.962;2022-09-28T14:13:10;1.27;;;1.10;;
5898;SDS011;2975;50.956;6.962;2022-09-28T14:23:49;2.00;;;1.17;;
5898;SDS011;2975;50.956;6.962;2022-09-28T14:29:34;1.60;;;1.20;;
5898;SDS011;2975;50.956;6.962;2022-09-28T14:34:37;1.87;;;1.00;;
5898;SDS011;2975;50.956;6.962;2022-09-28T14:37:20;2.53;;;1.00;;
5898;SDS011;2975;50.956;6.962;2022-09-28T14:40:18;5.70;;;1.43;;
5898;SDS011;2975;50.956;6.962;2022-09-28T14:43:24;2.07;;;0.90;;
5898;SDS011;2975;50.956;6.962;2022-09-28T14:48:52;2.03;;;1.07;;
5898;SDS011;2975;50.956;6.962;2022-09-28T14:53:51;3.93;;;1.20;;
5898;SDS011;2975;50.956;6.962;2022-09-28T14:56:19;1.50;;;1.40;;
5898;SDS011;2975;50.956;6.962;2022-09-28T14:58:46;4.93;;;1.30;;
5898;SDS011;2975;50.956;6.962;2022-09-28T15:01:19;1.77;;;1.37;;
5898;SDS011;2975;50.956;6.962;2022-09-28T15:03:50;3.20;;;1.37;;
5898;SDS011;2975;50.956;6.962;2022-09-28T15:06:21;5.00;;;1.80;;
5898;SDS011;2975;50.956;6.962;2022-09-28T15:08:48;3.53;;;1.37;;
5898;SDS011;2975;50.956;6.962;2022-09-28T15:11:18;2.87;;;1.43;;
5898;SDS011;2975;50.956;6.962;2022-09-28T15:13:49;2.47;;;1.10;;
5898;SDS011;2975;50.956;6.962;2022-09-28T15:16:28;3.60;;;1.03;;
5898;SDS011;2975;50.956;6.962;2022-09-28T15:21:29;2.73;;;0.90;;
5898;SDS011;2975;50.956;6.962;2022-09-28T15:23:59;1.63;;;0.70;;
5898;SDS011;2975;50.956;6.962;2022-09-28T15:26:27;0.53;;;0.40;;
5898;SDS011;2975;50.956;6.962;2022-09-28T15:28:55;1.23;;;0.40;;
5898;SDS011;2975;50.956;6.962;2022-09-28T15:31:23;6.10;;;3.10;;
5898;SDS011;2975;50.956;6.962;2022-09-28T15:33:50;3.13;;;0.87;;
5898;SDS011;2975;50.956;6.962;2022-09-28T15:36:39;0.73;;;0.60;;
5898;SDS011;2975;50.956;6.962;2022-09-28T15:39:14;1.07;;;0.60;;
5898;SDS011;2975;50.956;6.962;2022-09-28T15:41:46;1.87;;;0.60;;
5898;SDS011;2975;50.956;6.962;2022-09-28T15:46:40;1.57;;;0.60;;
5898;SDS011;2975;50.956;6.962;2022-09-28T15:49:18;0.63;;;0.63;;
5898;SDS011;2975;50.956;6.962;2022-09-28T15:51:55;3.07;;;0.70;;
5898;SDS011;2975;50.956;6.962;2022-09-28T15:54:22;0.80;;;0.80;;
5898;SDS011;2975;50.956;6.962;2022-09-28T15:56:55;2.00;;;0.87;;
5898;SDS011;2975;50.956;6.962;2022-09-28T15:59:30;2.70;;;0.90;;
5898;SDS011;2975;50.956;6.962;2022-09-28T16:02:14;2.83;;;1.17;;
5898;SDS011;2975;50.956;6.962;2022-09-28T16:04:53;1.53;;;1.27;;
5898;SDS011;2975;50.956;6.962;2022-09-28T16:15:19;4.23;;;1.50;;
5898;SDS011;2975;50.956;6.962;2022-09-28T16:18:05;2.53;;;1.80;;
5898;SDS011;2975;50.956;6.962;2022-09-28T16:20:42;1.70;;;1.27;;
5898;SDS011;2975;50.956;6.962;2022-09-28T16:25:40;2.97;;;1.70;;
5898;SDS011;2975;50.956;6.962;2022-09-28T16:28:23;2.17;;;1.00;;
5898;SDS011;2975;50.956;6.962;2022-09-28T16:33:58;3.33;;;1.50;;
5898;SDS011;2975;50.956;6.962;2022-09-28T16:36:41;2.80;;;1.80;;
5898;SDS011;2975;50.956;6.962;2022-09-28T16:39:09;2.63;;;1.40;;
5898;SDS011;2975;50.956;6.962;2022-09-28T16:41:40;2.97;;;1.37;;
5898;SDS011;2975;50.956;6.962;2022-09-28T16:44:31;2.80;;;1.40;;
5898;SDS011;2975;50.956;6.962;2022-09-28T16:47:00;4.00;;;1.67;;
5898;SDS011;2975;50.956;6.962;2022-09-28T16:49:26;1.63;;;1.30;;
5898;SDS011;2975;50.956;6.962;2022-09-28T16:51:52;1.67;;;1.03;;
5898;SDS011;2975;50.956;6.962;2022-09-28T16:54:22;2.50;;;1.20;;
5898;SDS011;2975;50.956;6.962;2022-09-28T16:57:08;3.63;;;1.20;;
5898;SDS011;2975;50.956;6.962;2022-09-28T16:59:36;1.27;;;1.07;;
5898;SDS011;2975;50.956;6.962;2022-09-28T17:02:12;1.63;;;1.13;;
5898;SDS011;2975;50.956;6.962;2022-09-28T17:04:50;1.37;;;1.27;;
5898;SDS011;2975;50.956;6.962;2022-09-28T17:07:16;4.17;;;1.63;;
5898;SDS011;2975;50.956;6.962;2022-09-28T17:09:44;3.03;;;1.63;;
5898;SDS011;2975;50.956;6.962;2022-09-28T17:12:11;5.07;;;1.63;;
5898;SDS011;2975;50.956;6.962;2022-09-28T17:14:41;3.77;;;1.53;;
5898;SDS011;2975;50.956;6.962;2022-09-28T17:17:07;1.53;;;1.20;;
5898;SDS011;2975;50.956;6.962;2022-09-28T17:19:33;1.80;;;1.37;;
5898;SDS011;2975;50.956;6.962;2022-09-28T17:21:59;1.53;;;1.37;;
5898;SDS011;2975;50.956;6.962;2022-09-28T17:24:24;4.17;;;1.27;;
5898;SDS011;2975;50.956;6.962;2022-09-28T17:26:50;5.47;;;1.07;;
5898;SDS011;2975;50.956;6.962;2022-09-28T17:29:16;3.13;;;1.47;;
5898;SDS011;2975;50.956;6.962;2022-09-28T17:31:43;1.40;;;1.30;;
5898;SDS011;2975;50.956;6.962;2022-09-28T17:34:10;2.40;;;1.60;;
5898;SDS011;2975;50.956;6.962;2022-09-28T17:36:37;1.70;;;1.40;;
5898;SDS011;2975;50.956;6.962;2022-09-28T17:39:05;2.00;;;1.40;;
5898;SDS011;2975;50.956;6.962;2022-09-28T17:41:34;2.63;;;1.77;;
5898;SDS011;2975;50.956;6.962;2022-09-28T17:44:01;3.87;;;2.20;;
5898;SDS011;2975;50.956;6.962;2022-09-28T17:46:28;1.97;;;1.63;;
5898;SDS011;2975;50.956;6.962;2022-09-28T17:48:59;3.80;;;2.23;;
5898;SDS011;2975;50.956;6.962;2022-09-28T17:51:30;2.53;;;1.87;;
5898;SDS011;2975;50.956;6.962;2022-09-28T17:54:01;2.77;;;1.90;;
5898;SDS011;2975;50.956;6.962;2022-09-28T17:56:28;3.50;;;2.10;;
5898;SDS011;2975;50.956;6.962;2022-09-28T17:58:55;3.43;;;2.70;;
5898;SDS011;2975;50.956;6.962;2022-09-28T18:01:23;5.53;;;2.20;;
5898;SDS011;2975;50.956;6.962;2022-09-28T18:03:48;2.10;;;1.83;;
5898;SDS011;2975;50.956;6.962;2022-09-28T18:06:15;6.37;;;2.43;;
5898;SDS011;2975;50.956;6.962;2022-09-28T18:08:47;2.97;;;2.47;;
5898;SDS011;2975;50.956;6.962;2022-09-28T18:11:13;3.60;;;2.33;;
5898;SDS011;2975;50.956;6.962;2022-09-28T18:13:41;3.23;;;2.27;;
5898;SDS011;2975;50.956;6.962;2022-09-28T18:16:07;4.07;;;2.70;;
5898;SDS011;2975;50.956;6.962;2022-09-28T18:18:33;5.50;;;3.23;;
5898;SDS011;2975;50.956;6.962;2022-09-28T18:21:02;4.10;;;2.87;;
5898;SDS011;2975;50.956;6.962;2022-09-28T18:23:28;6.33;;;2.57;;
5898;SDS011;2975;50.956;6.962;2022-09-28T18:25:53;3.20;;;2.57;;
5898;SDS011;2975;50.956;6.962;2022-09-28T18:28:19;7.47;;;3.07;;
5898;SDS011;2975;50.956;6.962;2022-09-28T18:30:46;6.03;;;3.23;;
5898;SDS011;2975;50.956;6.962;2022-09-28T18:33:12;3.00;;;2.70;;
5898;SDS011;2975;50.956;6.962;2022-09-28T18:35:38;3.60;;;3.27;;
5898;SDS011;2975;50.956;6.962;2022-09-28T18:38:05;7.73;;;2.63;;
5898;SDS011;2975;50.956;6.962;2022-09-28T18:40:32;4.27;;;2.57;;
5898;SDS011;2975;50.956;6.962;2022-09-28T18:42:58;3.83;;;2.50;;
5898;SDS011;2975;50.956;6.962;2022-09-28T18:45:24;3.30;;;2.60;;